createdAt,value
2023-01-30T00:00:44.168Z,100942.72
2023-01-30T00:03:47.200Z,100946.84
2023-01-30T00:06:49.613Z,100911.75
2023-01-30T00:09:52.005Z,100927.38
2023-01-30T00:12:54.330Z,100929.16
2023-01-30T00:15:56.852Z,100897.72
2023-01-30T00:18:59.762Z,100926.06
2023-01-30T00:22:02.172Z,100904.66
2023-01-30T00:25:04.987Z,100903.66
2023-01-30T00:28:08.521Z,100918.22
2023-01-30T00:31:11.055Z,100890.91
2023-01-30T00:34:13.624Z,100901.13
2023-01-30T00:37:16.028Z,100874.63
2023-01-30T00:40:18.960Z,100890.06
2023-01-30T00:43:40.388Z,100891.75
2023-01-30T00:47:01.483Z,100875.59
2023-01-30T00:50:04.863Z,100875.53
2023-01-30T00:53:07.239Z,100893.53
2023-01-30T00:56:09.639Z,100889.28
2023-01-30T00:59:12.424Z,100889.31
2023-01-30T01:02:14.832Z,100825.25
2023-01-30T01:05:17.756Z,100873.19
2023-01-30T01:08:22.602Z,100843.25
2023-01-30T01:11:25.216Z,100854.25
2023-01-30T01:14:27.731Z,100859.41
2023-01-30T01:17:30.275Z,100872.19
2023-01-30T01:20:33.695Z,100867.25
2023-01-30T01:23:36.116Z,100844.28
2023-01-30T01:26:38.638Z,100837.34
2023-01-30T01:29:41.161Z,100827.06
2023-01-30T01:32:44.036Z,100852.69
2023-01-30T01:35:47.809Z,100828.81
2023-01-30T01:38:51.662Z,100831.31
2023-01-30T01:41:54.076Z,100827.88
2023-01-30T01:45:16.952Z,100826.25
2023-01-30T01:48:27.664Z,100832.97
2023-01-30T01:51:52.969Z,100825.41
2023-01-30T01:55:01.119Z,100824.47
2023-01-30T01:58:10.300Z,100809.97
2023-01-30T02:01:13.929Z,100824.50
2023-01-30T02:04:36.576Z,100784.41
2023-01-30T02:07:52.485Z,100831.38
2023-01-30T02:11:17.199Z,100821.91
2023-01-30T02:14:20.827Z,100813.44
2023-01-30T02:17:24.419Z,100781.91
2023-01-30T02:20:32.177Z,100813.50
2023-01-30T02:23:59.559Z,100804.88
2023-01-30T02:27:15.793Z,100792.13
2023-01-30T02:30:56.023Z,100794.63
2023-01-30T02:34:01.157Z,100785.25
2023-01-30T02:37:38.171Z,100772.50
2023-01-30T02:41:16.176Z,100781.16
2023-01-30T02:44:33.297Z,100771.69
2023-01-30T02:47:50.466Z,100740.16
2023-01-30T02:51:01.977Z,100740.91
2023-01-30T02:54:08.069Z,100726.34
2023-01-30T02:57:21.611Z,100745.22
2023-01-30T03:00:40.066Z,100763.97
2023-01-30T03:04:00.947Z,100728.25
2023-01-30T03:07:25.092Z,100746.16
2023-01-30T03:10:33.692Z,100745.31
2023-01-30T03:13:46.920Z,100732.69
2023-01-30T03:16:54.406Z,100731.81
2023-01-30T03:19:58.870Z,100729.13
2023-01-30T03:23:01.802Z,100702.72
2023-01-30T03:26:08.216Z,100718.13
2023-01-30T03:29:11.507Z,100706.22
2023-01-30T03:32:13.900Z,100683.22
2023-01-30T03:35:17.962Z,100679.69
2023-01-30T03:38:20.817Z,100700.16
2023-01-30T03:41:25.632Z,100704.41
2023-01-30T03:44:29.361Z,100681.41
2023-01-30T03:47:31.708Z,100697.69
2023-01-30T03:50:34.356Z,100693.44
2023-01-30T03:53:36.864Z,100666.13
2023-01-30T03:56:40.638Z,100665.28
2023-01-30T03:59:43.976Z,100655.91
2023-01-30T04:02:50.182Z,100675.53
2023-01-30T04:05:53.480Z,100648.22
2023-01-30T04:08:56.073Z,100649.94
2023-01-30T04:12:18.737Z,100663.63
2023-01-30T04:15:28.176Z,100651.72
2023-01-30T04:18:53.696Z,100655.97
2023-01-30T04:21:58.684Z,100655.13
2023-01-30T04:25:02.183Z,100597.19
2023-01-30T04:28:06.128Z,100637.28
2023-01-30T04:31:12.156Z,100621.91
2023-01-30T04:34:20.100Z,100623.63
2023-01-30T04:37:22.516Z,100618.50
2023-01-30T04:40:25.288Z,100652.47
2023-01-30T04:43:28.925Z,100666.78
2023-01-30T04:46:34.231Z,100653.19
2023-01-30T04:49:36.838Z,100650.69
2023-01-30T04:52:41.269Z,100634.22
2023-01-30T04:55:44.476Z,100653.81
2023-01-30T04:58:46.992Z,100657.94
2023-01-30T05:01:50.370Z,100658.75
2023-01-30T05:04:52.841Z,100645.09
2023-01-30T05:07:55.524Z,100638.06
2023-01-30T05:10:58.301Z,100571.38
2023-01-30T05:14:00.893Z,100609.72
2023-01-30T05:17:03.240Z,100619.16
2023-01-30T05:20:07.386Z,100646.31
2023-01-30T05:23:09.761Z,100613.97
2023-01-30T05:26:14.065Z,100592.72
2023-01-30T05:29:16.525Z,100599.47
2023-01-30T05:32:19.966Z,100608.88
2023-01-30T05:35:22.377Z,100614.84
2023-01-30T05:38:25.389Z,100607.09
2023-01-30T05:41:27.815Z,100600.97
2023-01-30T05:44:30.264Z,100608.69
2023-01-30T05:47:32.678Z,100610.34
2023-01-30T05:50:35.148Z,100600.88
2023-01-30T05:53:37.549Z,100596.47
2023-01-30T05:56:40.092Z,100563.06
2023-01-30T05:59:43.075Z,100558.84
2023-01-30T06:02:45.423Z,100579.19
2023-01-30T06:05:47.780Z,100572.56
2023-01-30T06:08:54.352Z,100523.00
2023-01-30T06:11:56.756Z,100564.00
2023-01-30T06:14:59.187Z,100570.72
2023-01-30T06:18:01.642Z,100602.31
2023-01-30T06:21:04.737Z,100567.41
2023-01-30T06:24:07.273Z,100571.41
2023-01-30T06:27:09.688Z,100565.50
2023-01-30T06:30:12.800Z,100585.41
2023-01-30T06:33:15.393Z,100550.44
2023-01-30T06:36:17.790Z,100549.72
2023-01-30T06:39:20.205Z,100548.13
2023-01-30T06:42:22.638Z,100558.38
2023-01-30T06:45:24.992Z,100585.72
2023-01-30T06:48:27.632Z,100588.50
2023-01-30T06:51:30.662Z,100571.38
2023-01-30T06:54:33.085Z,100578.41
2023-01-30T06:57:35.454Z,100573.91
2023-01-30T07:00:40.240Z,100573.03
2023-01-30T07:03:42.695Z,100572.28
2023-01-30T07:06:46.848Z,100551.94
2023-01-30T07:10:02.120Z,100569.84
2023-01-30T07:13:09.301Z,100532.47
2023-01-30T07:16:11.727Z,100560.06
2023-01-30T07:19:14.165Z,100560.88
2023-01-30T07:22:16.991Z,100561.09
2023-01-30T07:25:21.346Z,100553.47
2023-01-30T07:28:24.314Z,100549.69
2023-01-30T07:31:26.727Z,100541.97
2023-01-30T07:34:29.690Z,100522.50
2023-01-30T07:37:32.072Z,100550.59
2023-01-30T07:40:34.701Z,100547.13
2023-01-30T07:43:37.044Z,100546.22
2023-01-30T07:46:39.620Z,100520.59
2023-01-30T07:49:42.191Z,100531.84
2023-01-30T07:52:45.076Z,100526.69
2023-01-30T07:55:47.721Z,100555.69
2023-01-30T07:58:51.208Z,100516.56
2023-01-30T08:01:53.582Z,100518.16
2023-01-30T08:04:56.087Z,100500.50
2023-01-30T08:07:58.589Z,100539.97
2023-01-30T08:11:01.942Z,100531.38
2023-01-30T08:14:04.341Z,100500.72
2023-01-30T08:17:07.058Z,100499.59
2023-01-30T08:20:10.054Z,100489.63
2023-01-30T08:23:12.506Z,100519.56
2023-01-30T08:26:15.088Z,100501.91
2023-01-30T08:29:17.836Z,100464.44
2023-01-30T08:32:20.628Z,100449.97
2023-01-30T08:35:23.279Z,100456.78
2023-01-30T08:38:25.848Z,100440.59
2023-01-30T08:41:28.406Z,100433.78
2023-01-30T08:44:30.818Z,100440.53
2023-01-30T08:47:35.500Z,100426.03
2023-01-30T08:50:37.977Z,100439.75
2023-01-30T08:53:40.490Z,100409.06
2023-01-30T08:56:42.837Z,100428.59
2023-01-30T08:59:45.832Z,100414.06
2023-01-30T09:02:48.358Z,100393.72
2023-01-30T09:05:56.286Z,100413.31
2023-01-30T09:09:00.357Z,100420.09
2023-01-30T09:12:02.728Z,100389.53
2023-01-30T09:15:05.909Z,100402.34
2023-01-30T09:18:08.298Z,100378.31
2023-01-30T09:21:12.734Z,100368.19
2023-01-30T09:24:15.458Z,100415.94
2023-01-30T09:27:17.845Z,100401.47
2023-01-30T09:30:20.659Z,100393.78
2023-01-30T09:33:23.308Z,100387.81
2023-01-30T09:36:25.780Z,100392.09
2023-01-30T09:39:29.317Z,100398.03
2023-01-30T09:43:28.374Z,100353.81
2023-01-30T09:46:53.949Z,100376.78
2023-01-30T09:50:14.476Z,100377.63
2023-01-30T09:54:01.789Z,100367.44
2023-01-30T09:57:25.187Z,100336.81
2023-01-30T10:00:44.497Z,100322.38
2023-01-30T10:04:16.494Z,100361.50
2023-01-30T10:07:46.285Z,100361.50
2023-01-30T10:11:09.006Z,100313.00
2023-01-30T10:14:49.642Z,100342.75
2023-01-30T10:18:14.695Z,100320.66
2023-01-30T10:21:55.157Z,100298.47
2023-01-30T10:25:03.260Z,100298.56
2023-01-30T10:28:27.930Z,100288.31
2023-01-30T10:31:37.189Z,100259.41
2023-01-30T10:34:43.426Z,100266.25
2023-01-30T10:37:53.250Z,100241.59
2023-01-30T10:41:01.193Z,100221.16
2023-01-30T10:44:11.361Z,100237.31
2023-01-30T10:47:48.272Z,100242.44
2023-01-30T10:50:57.103Z,100239.81
2023-01-30T10:54:05.278Z,100223.66
2023-01-30T10:57:29.733Z,100233.84
2023-01-30T11:00:38.832Z,100205.75
2023-01-30T11:03:53.663Z,100203.16
2023-01-30T11:06:57.162Z,100206.38
2023-01-30T11:10:00.056Z,100197.06
2023-01-30T11:13:20.385Z,100202.13
2023-01-30T11:16:22.887Z,100156.19
2023-01-30T11:19:32.865Z,100174.94
2023-01-30T11:22:36.802Z,100163.13
2023-01-30T11:25:52.836Z,100165.69
2023-01-30T11:29:25.962Z,100148.72
2023-01-30T11:32:29.607Z,100149.44
2023-01-30T11:35:44.139Z,100091.63
2023-01-30T11:38:57.570Z,100087.31
2023-01-30T11:42:03.556Z,100075.88
2023-01-30T11:45:20.343Z,100088.81
2023-01-30T11:48:33.753Z,100097.16
2023-01-30T11:51:54.961Z,100053.97
2023-01-30T11:55:08.706Z,100019.13
2023-01-30T11:58:11.277Z,100075.03
2023-01-30T12:01:15.034Z,100072.66
2023-01-30T12:04:18.400Z,100057.50
2023-01-30T12:07:24.765Z,100049.09
2023-01-30T12:10:31.174Z,100029.59
2023-01-30T12:13:39.362Z,100054.06
2023-01-30T12:16:46.746Z,100054.91
2023-01-30T12:20:05.757Z,100048.16
2023-01-30T12:23:08.064Z,100053.13
2023-01-30T12:26:30.110Z,100042.22
2023-01-30T12:30:19.316Z,100043.03
2023-01-30T12:33:22.906Z,100003.88
2023-01-30T12:36:43.587Z,100027.50
2023-01-30T12:40:08.569Z,99963.94
2023-01-30T12:43:42.110Z,100006.28
2023-01-30T12:46:44.384Z,100007.25
2023-01-30T12:49:59.230Z,99969.16
2023-01-30T12:53:25.775Z,100003.13
2023-01-30T12:56:54.273Z,99989.50
2023-01-30T12:59:56.625Z,99992.06
2023-01-30T13:03:22.517Z,100001.44
2023-01-30T13:06:47.492Z,99980.19
2023-01-30T13:09:52.582Z,99982.72
2023-01-30T13:13:16.281Z,99980.06
2023-01-30T13:16:43.046Z,99990.28
2023-01-30T13:20:15.703Z,99974.97
2023-01-30T13:23:20.524Z,99978.38
2023-01-30T13:26:28.664Z,99941.94
2023-01-30T13:29:37.079Z,99937.63
2023-01-30T13:32:43.418Z,99946.13
2023-01-30T13:35:56.532Z,99971.50
2023-01-30T13:39:10.291Z,99978.22
2023-01-30T13:42:36.784Z,99979.06
2023-01-30T13:45:43.579Z,99980.78
2023-01-30T13:49:36.861Z,99979.88
2023-01-30T13:52:52.028Z,99950.19
2023-01-30T13:56:27.168Z,99974.63
2023-01-30T13:59:52.609Z,99973.75
2023-01-30T14:03:04.095Z,99972.88
2023-01-30T14:06:11.292Z,99930.44
2023-01-30T14:09:28.918Z,99952.47
2023-01-30T14:12:53.742Z,99978.72
2023-01-30T14:16:01.698Z,99933.72
2023-01-30T14:19:38.128Z,99948.94
2023-01-30T14:23:17.257Z,99949.84
2023-01-30T14:26:48.467Z,99960.88
2023-01-30T14:29:52.436Z,99923.66
2023-01-30T14:32:55.764Z,99966.81
2023-01-30T14:36:00.958Z,99971.03
2023-01-30T14:39:40.943Z,99955.75
2023-01-30T14:42:45.347Z,99936.16
2023-01-30T14:45:53.440Z,99943.06
2023-01-30T14:49:13.466Z,99920.16
2023-01-30T14:52:34.594Z,99930.28
2023-01-30T14:55:36.943Z,99887.91
2023-01-30T14:58:39.604Z,99912.34
2023-01-30T15:02:02.236Z,99924.22
2023-01-30T15:05:09.748Z,99924.34
2023-01-30T15:08:20.350Z,99931.03
2023-01-30T15:11:32.106Z,99887.84
2023-01-30T15:14:54.044Z,99881.84
2023-01-30T15:18:08.329Z,99914.88
2023-01-30T15:21:23.064Z,99913.19
2023-01-30T15:24:59.009Z,99924.28
2023-01-30T15:28:19.170Z,99895.53
2023-01-30T15:31:24.893Z,99911.56
2023-01-30T15:34:32.395Z,99884.44
2023-01-30T15:37:38.925Z,99921.69
2023-01-30T15:40:42.001Z,99890.44
2023-01-30T15:44:28.747Z,99929.41
2023-01-30T15:47:58.917Z,99934.47
2023-01-30T15:51:02.564Z,99899.78
2023-01-30T15:54:10.910Z,99912.41
2023-01-30T15:57:21.417Z,99897.00
2023-01-30T16:00:30.251Z,99924.13
2023-01-30T16:03:36.917Z,99891.91
2023-01-30T16:06:39.384Z,99930.03
2023-01-30T16:09:45.550Z,99932.56
2023-01-30T16:12:56.148Z,99909.75
2023-01-30T16:16:15.921Z,99905.44
2023-01-30T16:19:28.227Z,99936.69
2023-01-30T16:22:33.806Z,99931.50
2023-01-30T16:25:36.212Z,99934.94
2023-01-30T16:28:38.672Z,99935.88
2023-01-30T16:31:41.800Z,99903.59
2023-01-30T16:34:44.357Z,99898.44
2023-01-30T16:37:47.056Z,99881.22
2023-01-30T16:40:49.405Z,99896.56
2023-01-30T16:44:10.199Z,99906.69
2023-01-30T16:47:27.470Z,99901.66
2023-01-30T16:50:29.905Z,99894.03
2023-01-30T16:53:33.781Z,99894.91
2023-01-30T16:56:36.352Z,99887.34
2023-01-30T16:59:39.380Z,99896.69
2023-01-30T17:02:49.280Z,99900.06
2023-01-30T17:05:51.875Z,99896.69
2023-01-30T17:08:58.950Z,99902.53
2023-01-30T17:12:01.664Z,99861.09
2023-01-30T17:15:10.112Z,99904.97
2023-01-30T17:18:13.313Z,99898.88
2023-01-30T17:21:16.502Z,99892.00
2023-01-30T17:24:21.758Z,99878.50
2023-01-30T17:27:27.289Z,99870.13
2023-01-30T17:30:30.706Z,99861.53
2023-01-30T17:33:33.672Z,99869.25
2023-01-30T17:36:36.181Z,99847.22
2023-01-30T17:39:38.685Z,99848.94
2023-01-30T17:42:41.297Z,99855.03
2023-01-30T17:45:44.003Z,99839.13
2023-01-30T17:48:46.685Z,99883.97
2023-01-30T17:51:52.231Z,99886.53
2023-01-30T17:54:54.589Z,99867.13
2023-01-30T17:57:57.313Z,99859.53
2023-01-30T18:00:59.921Z,99850.91
2023-01-30T18:04:02.514Z,99853.28
2023-01-30T18:07:06.406Z,99833.00
2023-01-30T18:10:17.180Z,99864.41
2023-01-30T18:13:20.585Z,99882.88
2023-01-30T18:16:30.991Z,99854.97
2023-01-30T18:19:33.792Z,99879.53
2023-01-30T18:22:36.493Z,99837.72
2023-01-30T18:25:38.859Z,99853.09
2023-01-30T18:28:41.608Z,99876.03
2023-01-30T18:31:44.229Z,99875.25
2023-01-30T18:34:47.089Z,99845.50
2023-01-30T18:37:50.232Z,99817.63
2023-01-30T18:40:52.816Z,99842.53
2023-01-30T18:44:00.486Z,99833.09
2023-01-30T18:47:03.060Z,99877.09
2023-01-30T18:50:06.064Z,99866.78
2023-01-30T18:53:08.950Z,99873.44
2023-01-30T18:56:13.473Z,99891.34
2023-01-30T18:59:16.086Z,99871.09
2023-01-30T19:02:18.735Z,99860.91
2023-01-30T19:05:21.682Z,99865.13
2023-01-30T19:08:25.954Z,99861.00
2023-01-30T19:11:46.883Z,99857.69
2023-01-30T19:14:49.997Z,99901.06
2023-01-30T19:17:52.598Z,99875.81
2023-01-30T19:20:58.741Z,99874.94
2023-01-30T19:24:11.954Z,99893.56
2023-01-30T19:27:14.691Z,99895.13
2023-01-30T19:30:18.476Z,99902.84
2023-01-30T19:33:21.580Z,99877.63
2023-01-30T19:36:26.700Z,99894.22
2023-01-30T19:39:29.346Z,99874.88
2023-01-30T19:42:31.951Z,99879.75
2023-01-30T19:45:34.669Z,99880.00
2023-01-30T19:48:39.330Z,99903.78
2023-01-30T19:51:42.491Z,99905.38
2023-01-30T19:54:47.001Z,99911.31
2023-01-30T19:57:49.657Z,99893.44
2023-01-30T20:00:52.407Z,99906.72
2023-01-30T20:03:57.576Z,99896.47
2023-01-30T20:07:01.308Z,99872.81
2023-01-30T20:10:06.996Z,99859.22
2023-01-30T20:13:09.714Z,99860.97
2023-01-30T20:16:20.846Z,99847.34
2023-01-30T20:19:23.595Z,99815.88
2023-01-30T20:22:26.283Z,99870.13
2023-01-30T20:25:30.071Z,99870.00
2023-01-30T20:28:33.391Z,99855.78
2023-01-30T20:31:38.534Z,99887.09
2023-01-30T20:34:40.890Z,99887.88
2023-01-30T20:37:43.487Z,99833.75
2023-01-30T20:40:47.311Z,99842.81
2023-01-30T20:43:52.341Z,99840.28
2023-01-30T20:46:56.572Z,99831.81
2023-01-30T20:49:59.141Z,99836.00
2023-01-30T20:53:01.905Z,99872.25
2023-01-30T20:56:05.420Z,99862.84
2023-01-30T20:59:07.889Z,99863.72
2023-01-30T21:02:10.386Z,99833.94
2023-01-30T21:05:12.986Z,99858.78
2023-01-30T21:08:15.390Z,99867.22
2023-01-30T21:11:20.122Z,99844.16
2023-01-30T21:14:23.005Z,99877.59
2023-01-30T21:17:28.186Z,99849.06
2023-01-30T21:20:30.932Z,99856.72
2023-01-30T21:23:33.622Z,99882.94
2023-01-30T21:26:39.384Z,99850.16
2023-01-30T21:29:42.152Z,99835.94
2023-01-30T21:32:44.536Z,99882.66
2023-01-30T21:35:47.200Z,99888.56
2023-01-30T21:39:08.363Z,99871.56
2023-01-30T21:42:29.081Z,99888.59
2023-01-30T21:45:31.886Z,99847.03
2023-01-30T21:48:34.642Z,99857.25
2023-01-30T21:51:37.733Z,99867.72
2023-01-30T21:54:40.142Z,99857.53
2023-01-30T21:57:42.493Z,99852.69
2023-01-30T22:00:45.578Z,99850.97
2023-01-30T22:03:48.451Z,99840.09
2023-01-30T22:06:50.816Z,99828.47
2023-01-30T22:09:53.236Z,99869.09
2023-01-30T22:12:55.592Z,99855.53
2023-01-30T22:16:02.830Z,99852.94
2023-01-30T22:19:05.348Z,99835.97
2023-01-30T22:22:07.820Z,99849.50
2023-01-30T22:25:10.323Z,99879.19
2023-01-30T22:28:12.800Z,99871.38
2023-01-30T22:31:17.665Z,99845.13
2023-01-30T22:34:20.468Z,99841.00
2023-01-30T22:37:22.824Z,99855.63
2023-01-30T22:40:25.177Z,99842.91
2023-01-30T22:43:29.408Z,99868.31
2023-01-30T22:46:34.904Z,99869.06
2023-01-30T22:49:37.267Z,99829.34
2023-01-30T22:52:39.733Z,99816.56
2023-01-30T22:55:42.095Z,99841.88
2023-01-30T22:58:45.581Z,99852.97
2023-01-30T23:01:50.744Z,99831.94
2023-01-30T23:04:53.373Z,99864.06
2023-01-30T23:07:55.768Z,99832.81
2023-01-30T23:11:04.145Z,99860.72
2023-01-30T23:14:09.402Z,99851.44
2023-01-30T23:17:30.657Z,99852.44
2023-01-30T23:20:33.033Z,99831.38
2023-01-30T23:23:35.597Z,99839.06
2023-01-30T23:26:40.879Z,99794.19
2023-01-30T23:29:43.619Z,99801.03
2023-01-30T23:32:46.004Z,99825.50
2023-01-30T23:35:48.388Z,99847.56
2023-01-30T23:38:52.797Z,99825.56
2023-01-30T23:41:55.176Z,99814.50
2023-01-30T23:44:57.609Z,99839.94
2023-01-30T23:47:59.933Z,99808.66
2023-01-30T23:51:03.124Z,99808.66
2023-01-30T23:54:06.445Z,99848.53
2023-01-30T23:57:08.816Z,99845.97
